createdAt,value
2022-07-29T00:01:19.699Z,99.06
2022-07-29T00:03:48.980Z,98.53
2022-07-29T00:06:19.209Z,97.78
2022-07-29T00:08:46.278Z,97.73
2022-07-29T00:11:12.929Z,98.19
2022-07-29T00:13:46.419Z,99.40
2022-07-29T00:16:18.198Z,99.45
2022-07-29T00:18:47.092Z,99.74
2022-07-29T00:21:13.699Z,98.79
2022-07-29T00:23:40.271Z,99.52
2022-07-29T00:26:12.164Z,100.00
2022-07-29T00:28:38.757Z,100.00
2022-07-29T00:31:05.527Z,100.00
2022-07-29T00:33:32.296Z,100.00
2022-07-29T00:36:06.577Z,100.00
2022-07-29T00:38:35.600Z,100.00
2022-07-29T00:41:04.443Z,100.00
2022-07-29T00:43:31.070Z,100.00
2022-07-29T00:45:57.633Z,100.00
2022-07-29T00:48:24.209Z,100.00
2022-07-29T00:50:51.769Z,99.80
2022-07-29T00:53:18.453Z,100.00
2022-07-29T00:55:47.243Z,99.76
2022-07-29T00:58:16.814Z,99.94
2022-07-29T01:00:43.690Z,99.38
2022-07-29T01:03:14.955Z,98.89
2022-07-29T01:05:49.914Z,100.00
2022-07-29T01:08:20.814Z,98.93
2022-07-29T01:10:48.444Z,98.39
2022-07-29T01:13:16.956Z,99.66
2022-07-29T01:16:36.256Z,100.00
2022-07-29T01:19:24.415Z,100.00
2022-07-29T01:22:02.699Z,100.00
2022-07-29T01:25:03.242Z,99.93
2022-07-29T01:27:55.924Z,99.59
2022-07-29T01:30:26.319Z,100.00
2022-07-29T01:33:00.656Z,99.83
2022-07-29T01:35:32.909Z,99.49
2022-07-29T01:37:59.441Z,99.22
2022-07-29T01:40:31.874Z,99.14
2022-07-29T01:43:00.857Z,99.25
2022-07-29T01:45:47.883Z,99.38
2022-07-29T01:48:19.185Z,99.63
2022-07-29T01:50:58.485Z,100.00
2022-07-29T01:53:36.452Z,99.56
2022-07-29T01:56:07.543Z,100.00
2022-07-29T01:58:37.871Z,100.00
2022-07-29T02:01:05.943Z,99.84
2022-07-29T02:03:37.435Z,99.98
2022-07-29T02:06:08.265Z,100.00
2022-07-29T02:08:41.619Z,100.00
2022-07-29T02:11:09.822Z,100.00
2022-07-29T02:13:40.158Z,100.00
2022-07-29T02:16:09.472Z,100.00
2022-07-29T02:18:42.395Z,100.00
2022-07-29T02:21:15.088Z,100.00
2022-07-29T02:23:51.140Z,100.00
2022-07-29T02:26:20.356Z,100.00
2022-07-29T02:28:53.503Z,100.00
2022-07-29T02:31:24.414Z,100.00
2022-07-29T02:33:53.869Z,100.00
2022-07-29T02:36:24.041Z,100.00
2022-07-29T02:38:51.759Z,100.00
2022-07-29T02:41:27.713Z,100.00
2022-07-29T02:44:02.863Z,100.00
2022-07-29T02:46:33.446Z,100.00
2022-07-29T02:49:25.725Z,100.00
2022-07-29T02:51:56.639Z,100.00
2022-07-29T02:54:40.253Z,100.00
2022-07-29T02:57:32.016Z,100.00
2022-07-29T03:00:05.226Z,100.00
2022-07-29T03:02:36.493Z,100.00
2022-07-29T03:05:05.902Z,100.00
2022-07-29T03:07:34.798Z,100.00
2022-07-29T03:10:04.536Z,100.00
2022-07-29T03:12:32.139Z,100.00
2022-07-29T03:15:02.906Z,100.00
2022-07-29T03:17:32.553Z,100.00
2022-07-29T03:20:02.942Z,100.00
2022-07-29T03:22:30.144Z,100.00
2022-07-29T03:24:56.774Z,100.00
2022-07-29T03:27:25.620Z,100.00
2022-07-29T03:29:52.228Z,100.00
2022-07-29T03:32:24.003Z,100.00
2022-07-29T03:34:51.962Z,100.00
2022-07-29T03:37:20.859Z,100.00
2022-07-29T03:39:49.601Z,100.00
2022-07-29T03:42:20.562Z,100.00
2022-07-29T03:44:49.383Z,100.00
2022-07-29T03:47:18.988Z,100.00
2022-07-29T03:49:55.173Z,100.00
2022-07-29T03:52:24.792Z,100.00
2022-07-29T03:54:51.491Z,100.00
2022-07-29T03:57:21.470Z,100.00
2022-07-29T03:59:55.672Z,100.00
2022-07-29T04:02:28.780Z,100.00
2022-07-29T04:05:00.625Z,100.00
2022-07-29T04:07:27.302Z,100.00
2022-07-29T04:09:54.291Z,100.00
2022-07-29T04:12:22.001Z,100.00
2022-07-29T04:14:51.231Z,100.00
2022-07-29T04:17:17.947Z,100.00
2022-07-29T04:19:44.530Z,100.00
2022-07-29T04:22:11.073Z,100.00
2022-07-29T04:24:37.865Z,100.00
2022-07-29T04:27:04.532Z,100.00
2022-07-29T04:29:33.714Z,100.00
2022-07-29T04:32:03.267Z,100.00
2022-07-29T04:34:30.000Z,100.00
2022-07-29T04:36:56.860Z,100.00
2022-07-29T04:39:23.455Z,100.00
2022-07-29T04:41:54.915Z,100.00
2022-07-29T04:44:28.439Z,100.00
2022-07-29T04:46:55.483Z,100.00
2022-07-29T04:49:22.513Z,100.00
2022-07-29T04:51:49.136Z,100.00
2022-07-29T04:54:18.841Z,100.00
2022-07-29T04:56:47.402Z,100.00
2022-07-29T04:59:16.630Z,100.00
2022-07-29T05:01:45.351Z,100.00
2022-07-29T05:04:12.000Z,100.00
2022-07-29T05:06:38.565Z,100.00
2022-07-29T05:09:09.649Z,100.00
2022-07-29T05:11:36.211Z,100.00
2022-07-29T05:14:05.995Z,100.00
2022-07-29T05:16:37.600Z,100.00
2022-07-29T05:19:10.931Z,98.67
2022-07-29T05:21:43.378Z,97.76
2022-07-29T05:24:13.186Z,95.67
2022-07-29T05:26:43.646Z,95.88
2022-07-29T05:29:44.322Z,94.00
2022-07-29T05:31:57.162Z,94.90
2022-07-29T05:34:26.142Z,93.96
2022-07-29T05:36:55.111Z,92.64
2022-07-29T05:39:21.709Z,93.47
2022-07-29T05:41:53.142Z,95.82
2022-07-29T05:44:20.270Z,96.05
2022-07-29T05:46:52.386Z,96.32
2022-07-29T05:49:26.977Z,96.76
2022-07-29T05:51:57.253Z,96.37
2022-07-29T05:54:23.785Z,97.25
2022-07-29T05:56:52.893Z,95.71
2022-07-29T05:59:19.437Z,93.03
2022-07-29T06:01:48.147Z,92.62
2022-07-29T06:04:18.066Z,92.56
2022-07-29T06:06:47.064Z,92.98
2022-07-29T06:09:14.359Z,93.70
2022-07-29T06:11:41.106Z,93.42
2022-07-29T06:14:07.653Z,93.96
2022-07-29T06:16:34.287Z,94.07
2022-07-29T06:19:03.286Z,95.24
2022-07-29T06:21:32.431Z,94.66
2022-07-29T06:23:58.983Z,94.84
2022-07-29T06:26:31.427Z,95.17
2022-07-29T06:29:00.066Z,96.46
2022-07-29T06:31:27.168Z,96.73
2022-07-29T06:33:56.140Z,96.26
2022-07-29T06:36:22.969Z,96.62
2022-07-29T06:38:52.277Z,97.00
2022-07-29T06:41:23.752Z,97.81
2022-07-29T06:43:54.577Z,97.83
2022-07-29T06:46:24.972Z,97.79
2022-07-29T06:48:53.116Z,97.12
2022-07-29T06:51:22.274Z,97.01
2022-07-29T06:54:01.422Z,96.48
2022-07-29T06:56:39.338Z,97.67
2022-07-29T06:59:13.072Z,98.13
2022-07-29T07:01:42.104Z,98.33
2022-07-29T07:04:12.045Z,97.33
2022-07-29T07:06:38.982Z,97.11
2022-07-29T07:09:05.804Z,96.11
2022-07-29T07:11:32.424Z,96.45
2022-07-29T07:14:02.949Z,96.99
2022-07-29T07:16:31.990Z,95.21
2022-07-29T07:18:58.733Z,95.37
2022-07-29T07:21:25.300Z,96.37
2022-07-29T07:23:51.891Z,95.84
2022-07-29T07:26:18.533Z,95.64
2022-07-29T07:28:45.292Z,95.52
2022-07-29T07:31:12.867Z,96.14
2022-07-29T07:33:41.755Z,95.88
2022-07-29T07:36:10.671Z,95.77
2022-07-29T07:38:37.237Z,95.75
2022-07-29T07:41:06.653Z,96.11
2022-07-29T07:43:33.231Z,95.98
2022-07-29T07:46:00.254Z,96.11
2022-07-29T07:48:30.093Z,96.19
2022-07-29T07:50:58.946Z,96.26
2022-07-29T07:53:25.491Z,96.24
2022-07-29T07:56:12.884Z,95.88
2022-07-29T07:58:40.027Z,95.61
2022-07-29T08:01:06.855Z,94.42
2022-07-29T08:03:34.366Z,93.72
2022-07-29T08:06:00.935Z,91.88
2022-07-29T08:08:27.479Z,90.82
2022-07-29T08:10:54.288Z,91.97
2022-07-29T08:13:23.221Z,91.49
2022-07-29T08:15:58.650Z,92.47
2022-07-29T08:18:29.188Z,93.59
2022-07-29T08:20:56.214Z,93.83
2022-07-29T08:23:32.857Z,94.57
2022-07-29T08:26:14.543Z,96.53
2022-07-29T08:28:50.407Z,95.86
2022-07-29T08:31:17.810Z,95.98
2022-07-29T08:33:44.442Z,96.93
2022-07-29T08:36:11.095Z,96.87
2022-07-29T08:38:37.679Z,97.23
2022-07-29T08:41:04.695Z,92.46
2022-07-29T08:43:31.455Z,92.68
2022-07-29T08:45:58.139Z,92.80
2022-07-29T08:48:25.719Z,90.66
2022-07-29T08:50:57.318Z,91.49
2022-07-29T08:53:27.652Z,89.39
2022-07-29T08:55:54.734Z,90.85
2022-07-29T08:58:23.257Z,93.11
2022-07-29T09:00:55.454Z,91.94
2022-07-29T09:03:25.641Z,91.07
2022-07-29T09:05:55.899Z,90.76
2022-07-29T09:08:23.723Z,89.55
2022-07-29T09:10:50.777Z,89.27
2022-07-29T09:13:19.650Z,88.57
2022-07-29T09:15:46.519Z,89.07
2022-07-29T09:18:20.350Z,88.86
2022-07-29T09:21:16.330Z,88.72
2022-07-29T09:24:20.464Z,86.59
2022-07-29T09:26:49.810Z,87.30
2022-07-29T09:29:21.606Z,85.93
2022-07-29T09:31:51.669Z,82.76
2022-07-29T09:34:24.452Z,83.58
2022-07-29T09:36:54.739Z,81.81
2022-07-29T09:39:34.052Z,84.16
2022-07-29T09:42:03.448Z,80.37
2022-07-29T09:44:50.278Z,80.68
2022-07-29T09:47:19.024Z,79.48
2022-07-29T09:50:02.079Z,81.40
2022-07-29T09:52:33.035Z,77.61
2022-07-29T09:55:17.933Z,75.45
2022-07-29T09:57:45.308Z,75.51
2022-07-29T10:00:12.260Z,74.00
2022-07-29T10:02:44.962Z,72.84
2022-07-29T10:05:23.863Z,75.46
2022-07-29T10:07:55.227Z,74.99
2022-07-29T10:10:32.309Z,74.39
2022-07-29T10:13:09.828Z,72.31
2022-07-29T10:15:45.242Z,70.85
2022-07-29T10:18:18.330Z,68.17
2022-07-29T10:20:45.398Z,66.07
2022-07-29T10:23:14.439Z,66.04
2022-07-29T10:25:46.046Z,66.28
2022-07-29T10:28:16.422Z,63.33
2022-07-29T10:30:47.992Z,62.93
2022-07-29T10:33:52.460Z,62.70
2022-07-29T10:36:35.743Z,60.96
2022-07-29T10:39:44.588Z,60.31
2022-07-29T10:42:34.326Z,62.21
2022-07-29T10:45:07.508Z,61.50
2022-07-29T10:47:36.797Z,61.99
2022-07-29T10:50:13.979Z,61.08
2022-07-29T10:52:58.444Z,63.04
2022-07-29T10:55:43.117Z,62.52
2022-07-29T10:58:26.827Z,63.55
2022-07-29T11:00:55.033Z,61.82
2022-07-29T11:03:41.843Z,60.32
2022-07-29T11:06:26.835Z,59.99
2022-07-29T11:09:34.773Z,60.16
2022-07-29T11:12:04.873Z,59.28
2022-07-29T11:14:53.560Z,58.47
2022-07-29T11:17:22.489Z,58.83
2022-07-29T11:19:52.325Z,58.44
2022-07-29T11:25:50.389Z,57.97
2022-07-29T11:28:23.138Z,57.93
2022-07-29T11:30:56.148Z,56.26
2022-07-29T11:33:37.460Z,56.38
2022-07-29T11:36:18.613Z,57.06
2022-07-29T11:39:40.878Z,57.56
2022-07-29T11:45:41.520Z,55.60
2022-07-29T11:48:19.640Z,55.92
2022-07-29T11:50:48.925Z,54.75
2022-07-29T11:53:21.385Z,56.27
2022-07-29T11:55:56.399Z,55.94
2022-07-29T11:58:26.529Z,56.05
2022-07-29T12:00:55.696Z,55.70
2022-07-29T12:03:36.103Z,50.12
2022-07-29T12:06:15.085Z,49.16
2022-07-29T12:07:03.639Z,56.09
2022-07-29T12:08:48.028Z,48.21
2022-07-29T12:11:23.444Z,47.22
2022-07-29T12:13:56.319Z,48.43
2022-07-29T12:16:25.595Z,47.38
2022-07-29T12:19:02.339Z,47.22
2022-07-29T12:21:30.971Z,46.25
2022-07-29T12:24:03.435Z,45.12
2022-07-29T12:26:35.715Z,44.81
2022-07-29T12:29:11.438Z,45.89
2022-07-29T12:31:45.448Z,45.43
2022-07-29T12:34:16.421Z,45.72
2022-07-29T12:36:44.166Z,45.48
2022-07-29T12:39:12.407Z,45.84
2022-07-29T12:41:40.029Z,46.49
2022-07-29T12:44:09.091Z,46.66
2022-07-29T12:46:35.882Z,45.12
2022-07-29T12:49:04.137Z,45.86
2022-07-29T12:51:39.702Z,43.78
2022-07-29T12:54:16.297Z,44.32
2022-07-29T12:56:45.369Z,43.85
2022-07-29T12:59:22.902Z,43.62
2022-07-29T13:01:52.410Z,43.69
2022-07-29T13:04:31.086Z,43.67
2022-07-29T13:07:06.458Z,43.72
2022-07-29T13:09:44.214Z,43.75
2022-07-29T13:12:15.419Z,43.94
2022-07-29T13:14:44.554Z,44.33
2022-07-29T13:17:13.891Z,44.83
2022-07-29T13:19:49.181Z,45.87
2022-07-29T13:22:25.081Z,46.26
2022-07-29T13:24:52.834Z,49.77
2022-07-29T13:27:22.353Z,48.37
2022-07-29T13:29:50.146Z,47.87
2022-07-29T13:32:28.284Z,48.13
2022-07-29T13:35:05.453Z,49.62
2022-07-29T13:37:35.201Z,50.45
2022-07-29T13:40:04.219Z,48.54
2022-07-29T13:42:32.433Z,50.37
2022-07-29T13:44:59.486Z,50.17
2022-07-29T13:47:32.206Z,51.76
2022-07-29T13:50:02.932Z,51.23
2022-07-29T13:52:29.737Z,52.23
2022-07-29T13:54:56.411Z,52.93
2022-07-29T13:57:23.050Z,50.80
2022-07-29T13:59:53.858Z,50.73
2022-07-29T14:02:26.419Z,50.35
2022-07-29T14:04:58.377Z,50.44
2022-07-29T14:07:25.102Z,49.39
2022-07-29T14:09:54.528Z,49.83
2022-07-29T14:12:24.274Z,49.11
2022-07-29T14:14:51.171Z,48.14
2022-07-29T14:17:21.187Z,48.52
2022-07-29T14:19:52.329Z,48.96
2022-07-29T14:22:23.125Z,48.35
2022-07-29T14:24:57.041Z,48.62
2022-07-29T14:27:38.073Z,48.61
2022-07-29T14:30:08.355Z,49.12
2022-07-29T14:32:34.898Z,51.13
2022-07-29T14:35:01.514Z,50.69
2022-07-29T14:37:39.957Z,53.42
2022-07-29T14:40:08.990Z,56.33
2022-07-29T14:42:35.627Z,57.79
2022-07-29T14:45:04.975Z,58.13
2022-07-29T14:47:33.234Z,61.84
2022-07-29T14:50:00.195Z,63.21
2022-07-29T14:52:31.598Z,63.84
2022-07-29T14:54:58.356Z,65.72
2022-07-29T14:57:25.115Z,67.30
2022-07-29T14:59:52.226Z,68.46
2022-07-29T15:02:21.841Z,69.86
2022-07-29T15:04:50.975Z,72.01
2022-07-29T15:07:20.042Z,75.06
2022-07-29T15:09:49.415Z,78.84
2022-07-29T15:12:16.617Z,80.85
2022-07-29T15:14:43.665Z,83.13
2022-07-29T15:17:10.413Z,82.76
2022-07-29T15:19:37.028Z,84.86
2022-07-29T15:22:05.760Z,86.46
2022-07-29T15:24:35.133Z,86.30
2022-07-29T15:27:02.172Z,88.04
2022-07-29T15:29:31.404Z,87.41
2022-07-29T15:31:58.263Z,90.01
2022-07-29T15:34:25.121Z,89.27
2022-07-29T15:36:54.502Z,90.71
2022-07-29T15:39:22.146Z,89.72
2022-07-29T15:41:49.124Z,89.79
2022-07-29T15:44:15.895Z,89.32
2022-07-29T15:47:01.765Z,89.19
2022-07-29T15:49:47.644Z,89.29
2022-07-29T15:52:25.333Z,87.78
2022-07-29T15:54:54.381Z,88.20
2022-07-29T15:57:20.947Z,89.11
2022-07-29T15:59:49.695Z,88.84
2022-07-29T16:02:16.288Z,89.28
2022-07-29T16:04:45.709Z,90.18
2022-07-29T16:07:17.272Z,90.15
2022-07-29T16:09:52.431Z,90.53
2022-07-29T16:12:21.999Z,88.70
2022-07-29T16:14:52.120Z,90.68
2022-07-29T16:17:24.007Z,89.57
2022-07-29T16:19:50.632Z,89.27
2022-07-29T16:22:17.292Z,89.23
2022-07-29T16:24:44.012Z,86.24
2022-07-29T16:27:13.639Z,88.36
2022-07-29T16:29:40.240Z,86.21
2022-07-29T16:32:07.107Z,85.71
2022-07-29T16:34:36.400Z,86.45
2022-07-29T16:37:03.669Z,83.45
2022-07-29T16:39:32.821Z,86.66
2022-07-29T16:42:01.008Z,85.86
2022-07-29T16:44:30.001Z,85.10
2022-07-29T16:46:58.795Z,83.98
2022-07-29T16:49:29.897Z,84.36
2022-07-29T16:51:58.953Z,84.19
2022-07-29T16:54:28.388Z,84.66
2022-07-29T16:56:54.939Z,84.25
2022-07-29T16:59:22.616Z,82.47
2022-07-29T17:01:51.520Z,82.51
2022-07-29T17:04:18.208Z,83.01
2022-07-29T17:06:44.834Z,82.97
2022-07-29T17:09:15.078Z,83.19
2022-07-29T17:11:52.967Z,82.89
2022-07-29T17:14:25.731Z,83.22
2022-07-29T17:17:00.414Z,83.37
2022-07-29T17:19:29.965Z,83.82
2022-07-29T17:22:08.974Z,84.28
2022-07-29T17:27:09.393Z,84.95
2022-07-29T17:29:38.928Z,84.14
2022-07-29T17:32:11.585Z,85.61
2022-07-29T17:34:39.726Z,85.51
2022-07-29T17:37:08.185Z,84.20
2022-07-29T17:39:35.748Z,84.66
2022-07-29T17:42:06.586Z,84.07
2022-07-29T17:44:36.204Z,85.48
2022-07-29T17:47:06.499Z,85.09
2022-07-29T17:49:37.455Z,84.54
2022-07-29T17:52:06.742Z,85.31
2022-07-29T17:54:33.409Z,85.99
2022-07-29T17:57:00.753Z,84.91
2022-07-29T17:59:27.565Z,85.31
2022-07-29T18:01:54.403Z,84.93
2022-07-29T18:04:23.412Z,84.61
2022-07-29T18:06:55.034Z,84.65
2022-07-29T18:09:24.358Z,85.02
2022-07-29T18:11:54.219Z,86.32
2022-07-29T18:14:20.818Z,85.89
2022-07-29T18:16:47.892Z,86.55
2022-07-29T18:19:14.965Z,86.49
2022-07-29T18:21:54.697Z,86.67
2022-07-29T18:24:27.598Z,86.80
2022-07-29T18:26:54.284Z,87.03
2022-07-29T18:29:21.050Z,86.96
2022-07-29T18:31:47.703Z,86.55
2022-07-29T18:34:14.279Z,87.20
2022-07-29T18:36:44.110Z,87.19
2022-07-29T18:39:11.365Z,88.02
2022-07-29T18:41:50.311Z,88.08
2022-07-29T18:44:18.953Z,87.96
2022-07-29T18:46:55.812Z,88.65
2022-07-29T18:49:23.371Z,90.22
2022-07-29T18:51:50.425Z,89.34
2022-07-29T18:54:19.919Z,90.73
2022-07-29T18:56:49.510Z,91.97
2022-07-29T18:59:19.543Z,91.01
2022-07-29T19:01:46.851Z,91.53
2022-07-29T19:04:17.161Z,91.63
2022-07-29T19:06:46.247Z,90.38
2022-07-29T19:09:13.385Z,91.05
2022-07-29T19:11:40.147Z,91.46
2022-07-29T19:14:07.066Z,91.88
2022-07-29T19:16:33.691Z,92.30
2022-07-29T19:19:01.120Z,91.75
2022-07-29T19:21:30.069Z,92.83
2022-07-29T19:24:00.118Z,93.26
2022-07-29T19:26:36.890Z,92.99
2022-07-29T19:29:06.277Z,92.93
2022-07-29T19:31:33.021Z,92.77
2022-07-29T19:33:59.675Z,92.79
2022-07-29T19:36:27.303Z,92.94
2022-07-29T19:38:53.870Z,93.80
2022-07-29T19:41:20.530Z,93.90
2022-07-29T19:43:51.959Z,94.13
2022-07-29T19:46:22.134Z,94.33
2022-07-29T19:48:49.234Z,94.96
2022-07-29T19:51:17.358Z,95.27
2022-07-29T19:53:46.072Z,95.59
2022-07-29T19:56:12.709Z,95.51
2022-07-29T19:58:41.544Z,95.62
2022-07-29T20:01:13.284Z,95.08
2022-07-29T20:03:42.244Z,95.93
2022-07-29T20:06:08.869Z,95.73
2022-07-29T20:08:35.664Z,95.21
2022-07-29T20:11:03.396Z,94.88
2022-07-29T20:13:31.723Z,95.40
2022-07-29T20:15:58.439Z,95.44
2022-07-29T20:18:25.151Z,95.61
2022-07-29T20:20:51.774Z,95.82
2022-07-29T20:23:22.372Z,95.97
2022-07-29T20:25:49.470Z,95.89
2022-07-29T20:28:18.330Z,95.92
2022-07-29T20:30:47.642Z,94.63
2022-07-29T20:33:14.717Z,96.10
2022-07-29T20:35:41.750Z,95.60
2022-07-29T20:38:13.005Z,96.55
2022-07-29T20:40:45.375Z,95.73
2022-07-29T20:43:14.330Z,95.43
2022-07-29T20:45:40.969Z,95.98
2022-07-29T20:48:08.292Z,95.99
2022-07-29T20:50:35.312Z,96.22
2022-07-29T20:53:01.893Z,96.64
2022-07-29T20:55:33.440Z,96.83
2022-07-29T20:58:02.849Z,96.69
2022-07-29T21:00:31.666Z,97.01
2022-07-29T21:02:58.905Z,96.80
2022-07-29T21:05:26.230Z,97.32
2022-07-29T21:07:56.582Z,97.40
2022-07-29T21:10:28.129Z,98.23
2022-07-29T21:12:57.233Z,98.04
2022-07-29T21:15:27.783Z,98.40
2022-07-29T21:18:00.815Z,99.36
2022-07-29T21:20:27.642Z,97.84
2022-07-29T21:22:56.761Z,98.97
2022-07-29T21:25:26.720Z,98.76
2022-07-29T21:28:14.044Z,99.50
2022-07-29T21:30:45.540Z,99.62
2022-07-29T21:33:17.233Z,100.00
2022-07-29T21:36:14.962Z,100.00
2022-07-29T21:38:35.023Z,100.00
2022-07-29T21:41:03.019Z,100.00
2022-07-29T21:43:29.909Z,100.00
2022-07-29T21:46:00.017Z,100.00
2022-07-29T21:48:29.245Z,100.00
2022-07-29T21:50:58.969Z,100.00
2022-07-29T21:53:26.763Z,100.00
2022-07-29T21:55:57.255Z,100.00
2022-07-29T21:58:28.711Z,100.00
2022-07-29T22:01:00.392Z,100.00
2022-07-29T22:03:30.068Z,100.00
2022-07-29T22:05:59.636Z,100.00
2022-07-29T22:08:26.295Z,100.00
2022-07-29T22:10:57.877Z,100.00
2022-07-29T22:13:24.440Z,100.00
2022-07-29T22:15:51.052Z,100.00
2022-07-29T22:18:21.332Z,100.00
2022-07-29T22:20:49.491Z,100.00
2022-07-29T22:23:20.971Z,100.00
2022-07-29T22:25:47.640Z,100.00
2022-07-29T22:28:14.214Z,100.00
2022-07-29T22:30:45.990Z,100.00
2022-07-29T22:33:17.598Z,100.00
2022-07-29T22:35:44.727Z,100.00
2022-07-29T22:38:14.341Z,100.00
2022-07-29T22:40:43.529Z,100.00
2022-07-29T22:43:12.900Z,100.00
2022-07-29T22:45:39.522Z,100.00
2022-07-29T22:48:08.958Z,100.00
2022-07-29T22:50:35.511Z,100.00
2022-07-29T22:53:04.382Z,100.00
2022-07-29T22:55:30.964Z,100.00
2022-07-29T22:57:59.959Z,100.00
2022-07-29T23:00:28.882Z,100.00
2022-07-29T23:02:57.711Z,100.00
2022-07-29T23:05:29.213Z,100.00
2022-07-29T23:07:56.016Z,100.00
2022-07-29T23:10:24.847Z,100.00
2022-07-29T23:12:53.892Z,100.00
2022-07-29T23:15:25.492Z,100.00
2022-07-29T23:17:54.445Z,100.00
2022-07-29T23:20:23.515Z,100.00
2022-07-29T23:22:55.857Z,100.00
2022-07-29T23:25:22.850Z,100.00
2022-07-29T23:27:49.850Z,100.00
2022-07-29T23:30:19.295Z,100.00
2022-07-29T23:32:48.131Z,100.00
2022-07-29T23:35:15.199Z,100.00
2022-07-29T23:37:44.851Z,100.00
2022-07-29T23:40:14.488Z,100.00
2022-07-29T23:42:42.302Z,100.00
2022-07-29T23:45:10.024Z,100.00
2022-07-29T23:47:36.728Z,100.00
2022-07-29T23:50:07.014Z,100.00
2022-07-29T23:52:33.915Z,100.00
2022-07-29T23:55:37.464Z,100.00
2022-07-29T23:57:51.179Z,100.00
